createdAt,value
2018-03-11T00:00:58.044Z,6.07
2018-03-11T00:03:27.481Z,6.05
2018-03-11T00:05:56.157Z,6.04
2018-03-11T00:08:24.525Z,6.05
2018-03-11T00:10:52.912Z,6.05
2018-03-11T00:13:21.200Z,6.06
2018-03-11T00:15:49.668Z,6.07
2018-03-11T00:18:17.971Z,6.11
2018-03-11T00:20:46.331Z,6.12
2018-03-11T00:23:14.608Z,6.16
2018-03-11T00:25:42.892Z,6.20
2018-03-11T00:28:11.207Z,6.22
2018-03-11T00:30:40.236Z,6.22
2018-03-11T00:33:08.500Z,6.24
2018-03-11T00:35:38.181Z,6.22
2018-03-11T00:38:06.982Z,6.23
2018-03-11T00:40:36.088Z,6.26
2018-03-11T00:43:05.226Z,6.27
2018-03-11T00:45:33.491Z,6.30
2018-03-11T00:48:01.783Z,6.36
2018-03-11T00:50:31.191Z,6.41
2018-03-11T00:53:00.181Z,6.48
2018-03-11T00:55:28.468Z,6.59
2018-03-11T00:57:56.748Z,6.74
2018-03-11T01:00:25.041Z,6.81
2018-03-11T01:02:54.000Z,6.87
2018-03-11T01:05:22.269Z,6.90
2018-03-11T01:07:50.560Z,6.88
2018-03-11T01:10:18.956Z,6.91
2018-03-11T01:12:47.221Z,6.90
2018-03-11T01:15:15.496Z,6.89
2018-03-11T01:17:43.780Z,6.86
2018-03-11T01:20:12.160Z,6.85
2018-03-11T01:22:40.970Z,6.83
2018-03-11T01:25:09.276Z,6.83
2018-03-11T01:27:38.315Z,6.79
2018-03-11T01:30:06.577Z,6.75
2018-03-11T01:32:35.401Z,6.73
2018-03-11T01:35:03.708Z,6.69
2018-03-11T01:37:31.936Z,6.66
2018-03-11T01:40:00.368Z,6.62
2018-03-11T01:42:28.954Z,6.55
2018-03-11T01:44:58.001Z,6.49
2018-03-11T01:47:26.277Z,6.43
2018-03-11T01:49:54.644Z,6.41
2018-03-11T01:52:22.937Z,6.39
2018-03-11T01:54:51.200Z,6.39
2018-03-11T01:57:19.710Z,6.38
2018-03-11T01:59:48.057Z,6.33
2018-03-11T02:02:17.176Z,6.33
2018-03-11T02:04:45.459Z,6.29
2018-03-11T02:07:13.724Z,6.30
2018-03-11T02:09:42.534Z,6.28
2018-03-11T02:12:11.020Z,6.32
2018-03-11T02:14:39.387Z,6.32
2018-03-11T02:17:07.964Z,6.29
2018-03-11T02:19:36.275Z,6.22
2018-03-11T02:22:04.620Z,6.18
2018-03-11T02:24:32.878Z,6.15
2018-03-11T02:27:01.612Z,6.17
2018-03-11T02:29:30.263Z,6.16
2018-03-11T02:31:58.536Z,6.20
2018-03-11T02:34:26.862Z,6.25
2018-03-11T02:36:56.019Z,6.30
2018-03-11T02:39:25.055Z,6.35
2018-03-11T02:41:54.442Z,6.37
2018-03-11T02:44:22.812Z,6.34
2018-03-11T02:46:51.727Z,6.27
2018-03-11T02:49:20.273Z,6.18
2018-03-11T02:51:50.237Z,6.12
2018-03-11T02:54:19.133Z,6.08
2018-03-11T02:56:47.572Z,6.08
2018-03-11T02:59:15.852Z,6.07
2018-03-11T03:01:44.124Z,6.13
2018-03-11T03:04:12.496Z,6.13
2018-03-11T03:06:40.803Z,6.15
2018-03-11T03:09:09.793Z,6.14
2018-03-11T03:11:38.055Z,6.16
2018-03-11T03:14:06.389Z,6.14
2018-03-11T03:16:35.518Z,6.18
2018-03-11T03:19:03.918Z,6.21
2018-03-11T03:21:33.000Z,6.26
2018-03-11T03:24:01.271Z,6.34
2018-03-11T03:26:29.656Z,6.41
2018-03-11T03:28:58.049Z,6.58
2018-03-11T03:31:26.317Z,6.71
2018-03-11T03:33:56.053Z,6.85
2018-03-11T03:36:24.423Z,7.02
2018-03-11T03:38:52.792Z,7.11
2018-03-11T03:41:21.063Z,7.16
2018-03-11T03:43:49.349Z,7.24
2018-03-11T03:46:18.790Z,7.33
2018-03-11T03:48:47.880Z,7.34
2018-03-11T03:51:17.056Z,7.32
2018-03-11T03:53:45.367Z,7.36
2018-03-11T03:56:13.635Z,7.39
2018-03-11T03:58:42.332Z,7.40
2018-03-11T04:01:10.625Z,7.45
2018-03-11T04:03:38.900Z,7.45
2018-03-11T04:06:07.954Z,7.47
2018-03-11T04:08:36.261Z,7.47
2018-03-11T04:11:06.035Z,7.49
2018-03-11T04:13:34.349Z,7.47
2018-03-11T04:16:03.128Z,7.50
2018-03-11T04:18:31.509Z,7.55
2018-03-11T04:20:59.816Z,7.52
2018-03-11T04:23:28.866Z,7.54
2018-03-11T04:25:57.689Z,7.55
2018-03-11T04:28:26.024Z,7.52
2018-03-11T04:30:55.176Z,7.51
2018-03-11T04:33:24.856Z,7.51
2018-03-11T04:35:53.724Z,7.50
2018-03-11T04:38:22.156Z,7.50
2018-03-11T04:40:50.408Z,7.50
2018-03-11T04:43:18.689Z,7.50
2018-03-11T04:45:47.050Z,7.45
2018-03-11T04:48:15.324Z,7.43
2018-03-11T04:50:43.588Z,7.44
2018-03-11T04:53:11.975Z,7.45
2018-03-11T04:55:41.070Z,7.50
2018-03-11T04:58:09.347Z,7.52
2018-03-11T05:00:39.060Z,7.53
2018-03-11T05:03:07.329Z,7.59
2018-03-11T05:05:35.612Z,7.60
2018-03-11T05:08:05.027Z,7.60
2018-03-11T05:10:33.304Z,7.60
2018-03-11T05:13:01.606Z,7.59
2018-03-11T05:15:30.457Z,7.59
2018-03-11T05:18:00.431Z,7.57
2018-03-11T05:20:28.739Z,7.60
2018-03-11T05:22:57.808Z,7.59
2018-03-11T05:25:27.006Z,7.59
2018-03-11T05:27:55.727Z,7.64
2018-03-11T05:30:24.000Z,7.66
2018-03-11T05:32:52.273Z,7.66
2018-03-11T05:35:21.495Z,7.70
2018-03-11T05:37:49.761Z,7.76
2018-03-11T05:40:18.029Z,7.75
2018-03-11T05:42:46.750Z,7.76
2018-03-11T05:45:16.220Z,7.76
2018-03-11T05:47:45.258Z,7.76
2018-03-11T05:50:13.880Z,7.75
2018-03-11T05:52:42.312Z,7.72
2018-03-11T05:55:10.596Z,7.70
2018-03-11T05:57:38.874Z,7.63
2018-03-11T06:00:08.164Z,7.65
2018-03-11T06:02:36.448Z,7.69
2018-03-11T06:05:04.733Z,7.73
2018-03-11T06:07:33.022Z,7.80
2018-03-11T06:10:02.114Z,7.81
2018-03-11T06:12:30.368Z,7.86
2018-03-11T06:14:59.259Z,7.88
2018-03-11T06:17:27.539Z,7.93
2018-03-11T06:19:55.791Z,7.94
2018-03-11T06:22:24.915Z,8.00
2018-03-11T06:24:53.172Z,8.08
2018-03-11T06:27:21.568Z,8.15
2018-03-11T06:29:49.864Z,8.07
2018-03-11T06:32:18.555Z,8.15
2018-03-11T06:34:46.928Z,8.11
2018-03-11T06:37:15.213Z,8.15
2018-03-11T06:39:43.472Z,8.15
2018-03-11T06:42:11.852Z,8.18
2018-03-11T06:44:40.129Z,8.21
2018-03-11T06:47:08.400Z,8.25
2018-03-11T06:49:36.799Z,8.25
2018-03-11T06:52:05.072Z,8.27
2018-03-11T06:54:34.677Z,8.29
2018-03-11T06:57:02.973Z,8.27
2018-03-11T06:59:31.248Z,8.28
2018-03-11T07:01:59.527Z,8.23
2018-03-11T07:04:28.002Z,8.28
2018-03-11T07:06:56.916Z,8.34
2018-03-11T07:09:25.624Z,8.33
2018-03-11T07:11:55.488Z,8.30
2018-03-11T07:14:23.778Z,8.33
2018-03-11T07:16:52.362Z,8.38
2018-03-11T07:19:20.628Z,8.39
2018-03-11T07:21:48.892Z,8.37
2018-03-11T07:24:17.388Z,8.41
2018-03-11T07:26:46.441Z,8.38
2018-03-11T07:29:16.248Z,8.47
2018-03-11T07:31:45.389Z,8.67
2018-03-11T07:34:13.644Z,8.68
2018-03-11T07:36:41.917Z,8.76
2018-03-11T07:39:10.993Z,8.88
2018-03-11T07:41:40.064Z,8.97
2018-03-11T07:44:08.531Z,8.97
2018-03-11T07:46:36.800Z,9.00
2018-03-11T07:49:05.072Z,9.11
2018-03-11T07:51:33.356Z,9.26
2018-03-11T07:54:02.174Z,9.36
2018-03-11T07:56:30.799Z,9.47
2018-03-11T07:58:59.920Z,9.41
2018-03-11T08:01:28.222Z,9.58
2018-03-11T08:03:56.492Z,9.68
2018-03-11T08:06:25.002Z,9.84
2018-03-11T08:08:53.265Z,9.84
2018-03-11T08:11:21.531Z,10.02
2018-03-11T08:13:49.829Z,10.23
2018-03-11T08:16:18.102Z,10.36
2018-03-11T08:18:46.373Z,10.37
2018-03-11T08:21:14.892Z,10.40
2018-03-11T08:23:43.943Z,10.43
2018-03-11T08:26:12.248Z,10.45
2018-03-11T08:28:41.041Z,10.58
2018-03-11T08:31:09.592Z,10.51
2018-03-11T08:33:38.410Z,10.54
2018-03-11T08:36:07.660Z,10.63
2018-03-11T08:38:35.953Z,10.80
2018-03-11T08:41:04.283Z,10.84
2018-03-11T08:43:33.320Z,10.94
2018-03-11T08:46:01.616Z,11.05
2018-03-11T08:48:30.848Z,11.07
2018-03-11T08:50:59.968Z,11.12
2018-03-11T08:53:29.092Z,11.16
2018-03-11T08:55:57.360Z,11.20
2018-03-11T08:58:25.637Z,11.15
2018-03-11T09:00:53.971Z,11.14
2018-03-11T09:03:22.254Z,11.17
2018-03-11T09:05:50.548Z,11.25
2018-03-11T09:08:19.625Z,11.26
2018-03-11T09:10:47.901Z,11.42
2018-03-11T09:13:16.176Z,11.46
2018-03-11T09:15:44.540Z,11.56
2018-03-11T09:18:12.805Z,11.54
2018-03-11T09:20:41.087Z,11.58
2018-03-11T09:23:09.381Z,11.73
2018-03-11T09:25:37.662Z,11.82
2018-03-11T09:28:05.997Z,11.89
2018-03-11T09:30:37.225Z,11.91
2018-03-11T09:33:06.309Z,12.04
2018-03-11T09:35:35.359Z,12.17
2018-03-11T09:38:03.636Z,12.29
2018-03-11T09:40:31.924Z,12.27
2018-03-11T09:43:00.205Z,12.30
2018-03-11T09:45:29.293Z,12.36
2018-03-11T09:47:58.487Z,12.50
2018-03-11T09:50:27.472Z,12.44
2018-03-11T09:52:56.591Z,12.56
2018-03-11T09:55:25.768Z,12.68
2018-03-11T09:57:54.044Z,12.77
2018-03-11T10:00:22.552Z,12.78
2018-03-11T10:02:50.930Z,13.06
2018-03-11T10:05:19.792Z,12.95
2018-03-11T10:07:48.089Z,13.05
2018-03-11T10:10:16.405Z,13.16
2018-03-11T10:12:45.548Z,13.27
2018-03-11T10:15:13.820Z,13.23
2018-03-11T10:17:42.172Z,13.24
2018-03-11T10:20:11.205Z,13.24
2018-03-11T10:22:39.507Z,13.41
2018-03-11T10:25:07.809Z,13.28
2018-03-11T10:27:36.870Z,13.25
2018-03-11T10:30:06.003Z,13.38
2018-03-11T10:32:34.280Z,13.46
2018-03-11T10:35:02.570Z,13.43
2018-03-11T10:37:31.614Z,13.39
2018-03-11T10:40:00.007Z,13.47
2018-03-11T10:42:28.281Z,13.63
2018-03-11T10:44:56.896Z,13.71
2018-03-11T10:47:25.806Z,13.89
2018-03-11T10:49:54.858Z,13.94
2018-03-11T10:52:23.807Z,13.92
2018-03-11T10:54:52.100Z,13.87
2018-03-11T10:57:20.400Z,13.94
2018-03-11T10:59:48.676Z,13.94
2018-03-11T11:02:23.348Z,13.95
2018-03-11T11:04:57.967Z,13.99
2018-03-11T11:07:28.363Z,14.09
2018-03-11T11:09:56.733Z,14.04
2018-03-11T11:12:25.789Z,14.16
2018-03-11T11:14:54.940Z,14.19
2018-03-11T11:17:23.228Z,14.40
2018-03-11T11:19:51.539Z,14.60
2018-03-11T11:22:20.607Z,14.69
2018-03-11T11:24:48.896Z,14.60
2018-03-11T11:27:17.944Z,14.75
2018-03-11T11:29:46.229Z,14.83
2018-03-11T11:32:14.496Z,15.01
2018-03-11T11:34:42.779Z,15.00
2018-03-11T11:37:11.049Z,14.98
2018-03-11T11:39:39.336Z,14.99
2018-03-11T11:42:07.714Z,15.04
2018-03-11T11:44:36.910Z,15.10
2018-03-11T11:47:06.332Z,15.17
2018-03-11T11:49:35.179Z,15.48
2018-03-11T11:52:03.903Z,15.43
2018-03-11T11:54:32.188Z,15.37
2018-03-11T11:57:00.570Z,15.35
2018-03-11T11:59:28.865Z,15.28
2018-03-11T12:01:57.132Z,15.28
2018-03-11T12:04:25.813Z,15.29
2018-03-11T12:06:54.420Z,15.23
2018-03-11T12:09:22.696Z,15.17
2018-03-11T12:11:51.651Z,15.12
2018-03-11T12:14:19.964Z,15.05
2018-03-11T12:16:48.347Z,15.22
2018-03-11T12:19:16.954Z,15.62
2018-03-11T12:21:46.000Z,15.47
2018-03-11T12:24:14.313Z,15.86
2018-03-11T12:26:42.601Z,16.12
2018-03-11T12:29:11.651Z,16.08
2018-03-11T12:31:39.953Z,16.17
2018-03-11T12:34:08.250Z,16.25
2018-03-11T12:36:38.020Z,16.27
2018-03-11T12:39:06.388Z,16.23
2018-03-11T12:41:34.664Z,16.31
2018-03-11T12:44:02.944Z,16.45
2018-03-11T12:46:31.239Z,16.60
2018-03-11T12:48:59.609Z,16.76
2018-03-11T12:51:28.329Z,17.45
2018-03-11T12:53:57.185Z,18.42
2018-03-11T12:56:26.004Z,19.10
2018-03-11T12:58:54.600Z,18.32
2018-03-11T13:01:23.049Z,18.13
2018-03-11T13:03:52.240Z,17.60
2018-03-11T13:06:21.148Z,17.19
2018-03-11T13:08:49.515Z,17.00
2018-03-11T13:11:17.788Z,16.83
2018-03-11T13:13:46.325Z,16.48
2018-03-11T13:16:14.635Z,16.47
2018-03-11T13:18:43.039Z,16.32
2018-03-11T13:21:12.454Z,16.19
2018-03-11T13:23:41.032Z,16.25
2018-03-11T13:26:09.312Z,16.28
2018-03-11T13:28:47.915Z,16.07
2018-03-11T13:31:16.159Z,16.14
2018-03-11T13:34:02.225Z,16.00
2018-03-11T13:36:31.192Z,15.94
2018-03-11T13:39:17.379Z,16.36
2018-03-11T13:41:45.656Z,17.33
2018-03-11T13:44:13.928Z,17.80
2018-03-11T13:47:11.129Z,17.67
2018-03-11T13:49:40.260Z,17.09
2018-03-11T13:52:26.304Z,17.02
2018-03-11T13:54:54.583Z,16.78
2018-03-11T14:00:55.805Z,16.04
2018-03-11T14:03:24.100Z,15.97
2018-03-11T14:05:53.456Z,15.81
2018-03-11T14:08:21.750Z,15.78
2018-03-11T14:10:51.608Z,15.55
2018-03-11T14:13:19.875Z,15.55
2018-03-11T14:15:48.577Z,15.60
2018-03-11T14:18:16.985Z,15.59
2018-03-11T14:20:45.253Z,15.50
2018-03-11T14:23:14.154Z,15.46
2018-03-11T14:25:42.911Z,15.41
2018-03-11T14:28:11.194Z,15.42
2018-03-11T14:30:39.460Z,15.44
2018-03-11T14:33:07.796Z,15.45
2018-03-11T14:35:36.836Z,15.44
2018-03-11T14:38:05.108Z,15.32
2018-03-11T14:40:33.490Z,15.34
2018-03-11T14:43:01.760Z,15.28
2018-03-11T14:45:30.051Z,15.29
2018-03-11T14:47:58.649Z,15.33
2018-03-11T14:50:27.368Z,15.19
2018-03-11T14:52:56.024Z,15.35
2018-03-11T14:55:24.396Z,15.36
2018-03-11T14:57:52.805Z,15.35
2018-03-11T15:00:21.069Z,15.52
2018-03-11T15:02:49.335Z,15.42
2018-03-11T15:05:17.706Z,15.65
2018-03-11T15:07:46.108Z,15.68
2018-03-11T15:10:14.700Z,15.75
2018-03-11T15:12:42.982Z,15.71
2018-03-11T15:15:11.860Z,15.85
2018-03-11T15:17:40.581Z,15.84
2018-03-11T15:20:09.624Z,15.83
2018-03-11T15:22:37.915Z,15.95
2018-03-11T15:25:06.279Z,15.98
2018-03-11T15:27:34.678Z,15.93
2018-03-11T15:30:02.983Z,15.98
2018-03-11T15:32:31.297Z,15.73
2018-03-11T15:34:59.598Z,15.46
2018-03-11T15:37:27.864Z,15.42
2018-03-11T15:39:56.172Z,15.36
2018-03-11T15:42:24.964Z,15.30
2018-03-11T15:44:53.628Z,15.28
2018-03-11T15:47:22.005Z,15.23
2018-03-11T15:49:51.178Z,15.18
2018-03-11T15:52:20.224Z,15.11
2018-03-11T15:54:48.496Z,15.12
2018-03-11T15:57:16.812Z,15.07
2018-03-11T15:59:45.866Z,15.09
2018-03-11T16:02:14.277Z,14.90
2018-03-11T16:04:42.550Z,14.85
2018-03-11T16:07:10.838Z,14.66
2018-03-11T16:09:39.167Z,14.42
2018-03-11T16:12:07.432Z,14.38
2018-03-11T16:14:35.708Z,14.36
2018-03-11T16:17:04.015Z,14.35
2018-03-11T16:19:32.306Z,14.27
2018-03-11T16:22:01.068Z,14.41
2018-03-11T16:24:29.793Z,14.20
2018-03-11T16:26:58.993Z,14.14
2018-03-11T16:29:27.295Z,13.99
2018-03-11T16:31:56.334Z,13.92
2018-03-11T16:34:26.364Z,13.76
2018-03-11T16:36:55.954Z,13.89
2018-03-11T16:39:24.260Z,13.83
2018-03-11T16:41:52.560Z,13.80
2018-03-11T16:44:20.837Z,13.74
2018-03-11T16:46:49.119Z,13.53
2018-03-11T16:49:18.603Z,13.72
2018-03-11T16:51:46.869Z,13.59
2018-03-11T16:54:15.169Z,13.60
2018-03-11T16:56:43.468Z,13.54
2018-03-11T16:59:12.506Z,13.60
2018-03-11T17:01:40.788Z,13.44
2018-03-11T17:04:09.082Z,13.41
2018-03-11T17:06:37.436Z,13.39
2018-03-11T17:09:05.722Z,13.31
2018-03-11T17:11:34.981Z,13.18
2018-03-11T17:14:04.049Z,13.15
2018-03-11T17:16:32.340Z,12.97
2018-03-11T17:19:00.661Z,12.89
2018-03-11T17:21:28.940Z,12.91
2018-03-11T17:23:57.250Z,12.86
2018-03-11T17:26:25.564Z,12.75
2018-03-11T17:28:54.687Z,12.60
2018-03-11T17:31:22.948Z,12.52
2018-03-11T17:33:51.742Z,12.44
2018-03-11T17:36:20.054Z,12.40
2018-03-11T17:38:48.330Z,12.42
2018-03-11T17:41:16.627Z,12.45
2018-03-11T17:43:45.817Z,12.46
2018-03-11T17:46:14.097Z,12.41
2018-03-11T17:48:42.401Z,12.53
2018-03-11T17:51:12.359Z,12.57
2018-03-11T17:53:40.637Z,12.52
2018-03-11T17:56:08.928Z,12.58
2018-03-11T17:58:37.760Z,12.48
2018-03-11T18:01:06.577Z,12.55
2018-03-11T18:03:35.711Z,12.62
2018-03-11T18:06:04.040Z,12.53
2018-03-11T18:08:33.610Z,12.55
2018-03-11T18:11:02.323Z,12.61
2018-03-11T18:13:30.988Z,12.58
2018-03-11T18:15:59.307Z,12.58
2018-03-11T18:18:28.390Z,12.60
2018-03-11T18:20:56.672Z,12.54
2018-03-11T18:23:25.742Z,12.53
2018-03-11T18:25:54.046Z,12.49
2018-03-11T18:28:23.139Z,12.40
2018-03-11T18:30:52.349Z,12.41
2018-03-11T18:33:21.901Z,12.39
2018-03-11T18:35:50.693Z,12.37
2018-03-11T18:38:19.005Z,12.32
2018-03-11T18:40:47.300Z,12.22
2018-03-11T18:43:16.365Z,12.16
2018-03-11T18:45:44.640Z,12.19
2018-03-11T18:48:13.016Z,12.23
2018-03-11T18:50:41.605Z,12.18
2018-03-11T18:53:10.648Z,12.23
2018-03-11T18:55:39.727Z,12.18
2018-03-11T18:58:08.784Z,12.13
2018-03-11T19:00:37.776Z,12.05
2018-03-11T19:03:06.369Z,12.13
2018-03-11T19:05:34.656Z,12.13
2018-03-11T19:08:03.338Z,12.15
2018-03-11T19:10:32.000Z,12.14
2018-03-11T19:13:00.281Z,12.14
2018-03-11T19:15:29.446Z,12.16
2018-03-11T19:17:58.525Z,12.16
2018-03-11T19:20:27.609Z,11.98
2018-03-11T19:22:56.001Z,11.86
2018-03-11T19:25:25.068Z,11.82
2018-03-11T19:27:53.432Z,11.80
2018-03-11T19:30:21.730Z,11.76
2018-03-11T19:32:50.100Z,11.70
2018-03-11T19:35:18.399Z,11.65
2018-03-11T19:37:47.509Z,11.61
2018-03-11T19:40:16.587Z,11.57
2018-03-11T19:42:45.093Z,11.54
2018-03-11T19:45:14.160Z,11.48
2018-03-11T19:47:42.469Z,11.54
2018-03-11T19:50:11.530Z,11.59
2018-03-11T19:52:39.879Z,11.59
2018-03-11T19:55:08.524Z,11.62
2018-03-11T19:57:37.613Z,11.62
2018-03-11T20:00:05.971Z,11.57
2018-03-11T20:02:34.371Z,11.44
2018-03-11T20:05:03.441Z,11.47
2018-03-11T20:07:31.731Z,11.47
2018-03-11T20:10:00.458Z,11.39
2018-03-11T20:12:29.552Z,11.33
2018-03-11T20:14:58.700Z,11.21
2018-03-11T20:17:27.025Z,11.20
2018-03-11T20:19:56.179Z,11.21
2018-03-11T20:22:25.053Z,11.20
2018-03-11T20:24:53.790Z,11.24
2018-03-11T20:27:22.482Z,11.23
2018-03-11T20:29:51.558Z,11.23
2018-03-11T20:32:20.160Z,11.15
2018-03-11T20:34:49.224Z,11.05
2018-03-11T20:37:17.702Z,10.99
2018-03-11T20:39:46.647Z,10.90
2018-03-11T20:42:16.345Z,10.85
2018-03-11T20:44:44.997Z,10.82
2018-03-11T20:47:13.276Z,10.77
2018-03-11T20:49:41.889Z,10.74
2018-03-11T20:52:10.972Z,10.69
2018-03-11T20:54:39.371Z,10.61
2018-03-11T20:57:08.429Z,10.53
2018-03-11T20:59:36.815Z,10.49
2018-03-11T21:02:05.120Z,10.43
2018-03-11T21:04:34.176Z,10.36
2018-03-11T21:07:02.894Z,10.34
2018-03-11T21:09:31.248Z,10.30
2018-03-11T21:11:59.509Z,10.29
2018-03-11T21:14:27.790Z,10.30
2018-03-11T21:16:56.192Z,10.40
2018-03-11T21:19:24.469Z,10.43
2018-03-11T21:21:52.753Z,10.40
2018-03-11T21:24:21.724Z,10.44
2018-03-11T21:26:50.004Z,10.51
2018-03-11T21:29:18.376Z,10.51
2018-03-11T21:31:46.662Z,10.50
2018-03-11T21:34:15.034Z,10.50
2018-03-11T21:36:44.603Z,10.41
2018-03-11T21:39:15.583Z,10.38
2018-03-11T21:41:43.996Z,10.45
2018-03-11T21:44:12.800Z,10.48
2018-03-11T21:46:41.135Z,10.45
2018-03-11T21:49:10.203Z,10.43
2018-03-11T21:51:38.471Z,10.40
2018-03-11T21:54:07.535Z,10.35
2018-03-11T21:56:35.887Z,10.31
2018-03-11T21:59:04.171Z,10.27
2018-03-11T22:01:32.445Z,10.27
2018-03-11T22:04:00.728Z,10.23
2018-03-11T22:06:29.052Z,10.24
2018-03-11T22:08:58.109Z,10.21
2018-03-11T22:11:26.607Z,10.19
2018-03-11T22:13:55.394Z,10.14
2018-03-11T22:16:24.288Z,9.96
2018-03-11T22:18:52.726Z,9.91
2018-03-11T22:21:21.391Z,9.83
2018-03-11T22:23:49.661Z,9.80
2018-03-11T22:26:18.996Z,9.78
2018-03-11T22:28:47.487Z,9.80
2018-03-11T22:31:15.972Z,9.76
2018-03-11T22:33:44.274Z,9.78
2018-03-11T22:36:13.072Z,9.76
2018-03-11T22:38:41.342Z,9.72
2018-03-11T22:41:09.637Z,9.67
2018-03-11T22:43:38.613Z,9.74
2018-03-11T22:46:07.310Z,9.76
2018-03-11T22:48:36.488Z,9.78
2018-03-11T22:51:04.777Z,9.76
2018-03-11T22:53:33.036Z,9.69
2018-03-11T22:56:01.411Z,9.61
2018-03-11T22:58:29.703Z,9.53
2018-03-11T23:00:58.076Z,9.47
2018-03-11T23:03:27.209Z,9.39
2018-03-11T23:05:56.272Z,9.32
2018-03-11T23:08:24.567Z,9.31
2018-03-11T23:10:52.908Z,9.30
2018-03-11T23:13:21.398Z,9.26
2018-03-11T23:15:49.728Z,9.17
2018-03-11T23:18:18.072Z,9.11
2018-03-11T23:20:46.469Z,9.07
2018-03-11T23:23:14.823Z,9.02
2018-03-11T23:25:43.091Z,8.99
2018-03-11T23:28:11.570Z,8.89
2018-03-11T23:30:39.939Z,8.90
2018-03-11T23:33:08.220Z,8.89
2018-03-11T23:35:37.647Z,8.85
2018-03-11T23:38:06.016Z,8.79
2018-03-11T23:40:34.278Z,8.79
2018-03-11T23:43:02.632Z,8.75
2018-03-11T23:45:32.587Z,8.72
2018-03-11T23:48:02.347Z,8.71
2018-03-11T23:50:32.161Z,8.66
2018-03-11T23:53:00.992Z,8.61
2018-03-11T23:55:29.284Z,8.56
2018-03-11T23:57:57.545Z,8.49
